sensor_id;sensor_type;location;lat;lon;timestamp;temperature;humidity
65637;DHT22;52327;42.622;23.316;2022-11-20T00:01:20;16.22;66.52
65637;DHT22;52327;42.622;23.316;2022-11-20T00:03:46;16.08;66.43
65637;DHT22;52327;42.622;23.316;2022-11-20T00:06:14;16.01;67.16
65637;DHT22;52327;42.622;23.316;2022-11-20T00:08:40;16.07;66.32
65637;DHT22;52327;42.622;23.316;2022-11-20T00:11:16;16.04;66.20
65637;DHT22;52327;42.622;23.316;2022-11-20T00:13:43;16.04;66.43
65637;DHT22;52327;42.622;23.316;2022-11-20T00:16:10;16.04;67.07
65637;DHT22;52327;42.622;23.316;2022-11-20T00:18:36;16.11;67.82
65637;DHT22;52327;42.622;23.316;2022-11-20T00:21:26;15.97;67.16
65637;DHT22;52327;42.622;23.316;2022-11-20T00:23:56;16.10;66.58
65637;DHT22;52327;42.622;23.316;2022-11-20T00:26:23;16.13;66.36
65637;DHT22;52327;42.622;23.316;2022-11-20T00:28:53;16.07;67.38
65637;DHT22;52327;42.622;23.316;2022-11-20T00:31:19;16.07;65.93
65637;DHT22;52327;42.622;23.316;2022-11-20T00:33:45;16.14;65.46
65637;DHT22;52327;42.622;23.316;2022-11-20T00:36:17;16.24;64.14
65637;DHT22;52327;42.622;23.316;2022-11-20T00:38:43;16.35;64.94
65637;DHT22;52327;42.622;23.316;2022-11-20T00:41:11;16.42;62.81
65637;DHT22;52327;42.622;23.316;2022-11-20T00:43:37;16.42;65.33
65637;DHT22;52327;42.622;23.316;2022-11-20T00:46:08;16.36;64.71
65637;DHT22;52327;42.622;23.316;2022-11-20T00:48:35;16.42;65.46
65637;DHT22;52327;42.622;23.316;2022-11-20T00:51:00;16.35;66.77
65637;DHT22;52327;42.622;23.316;2022-11-20T00:53:33;16.28;65.79
65637;DHT22;52327;42.622;23.316;2022-11-20T00:56:01;16.36;64.66
65637;DHT22;52327;42.622;23.316;2022-11-20T00:58:32;16.48;63.19
65637;DHT22;52327;42.622;23.316;2022-11-20T01:01:12;16.38;64.22
65637;DHT22;52327;42.622;23.316;2022-11-20T01:03:43;16.36;63.11
65637;DHT22;52327;42.622;23.316;2022-11-20T01:06:10;16.44;63.79
65637;DHT22;52327;42.622;23.316;2022-11-20T01:08:36;16.55;62.88
65637;DHT22;52327;42.622;23.316;2022-11-20T01:11:05;16.45;65.85
65637;DHT22;52327;42.622;23.316;2022-11-20T01:13:31;16.41;64.55
65637;DHT22;52327;42.622;23.316;2022-11-20T01:16:33;16.44;61.84
65637;DHT22;52327;42.622;23.316;2022-11-20T01:19:01;16.48;60.90
65637;DHT22;52327;42.622;23.316;2022-11-20T01:21:30;16.47;63.04
65637;DHT22;52327;42.622;23.316;2022-11-20T01:23:57;16.36;64.95
65637;DHT22;52327;42.622;23.316;2022-11-20T01:26:28;16.36;62.60
65637;DHT22;52327;42.622;23.316;2022-11-20T01:28:55;16.40;65.56
65637;DHT22;52327;42.622;23.316;2022-11-20T01:31:28;16.49;65.28
65637;DHT22;52327;42.622;23.316;2022-11-20T01:33:57;16.47;60.94
65637;DHT22;52327;42.622;23.316;2022-11-20T01:36:24;16.42;62.13
65637;DHT22;52327;42.622;23.316;2022-11-20T01:38:55;16.22;64.41
65637;DHT22;52327;42.622;23.316;2022-11-20T01:41:27;16.36;64.44
65637;DHT22;52327;42.622;23.316;2022-11-20T01:44:14;16.41;66.13
65637;DHT22;52327;42.622;23.316;2022-11-20T01:46:43;16.22;64.84
65637;DHT22;52327;42.622;23.316;2022-11-20T01:49:20;16.07;63.59
65637;DHT22;52327;42.622;23.316;2022-11-20T01:52:05;16.18;64.88
65637;DHT22;52327;42.622;23.316;2022-11-20T01:54:39;16.07;64.42
65637;DHT22;52327;42.622;23.316;2022-11-20T01:57:08;16.25;62.64
65637;DHT22;52327;42.622;23.316;2022-11-20T01:59:53;16.21;65.54
65637;DHT22;52327;42.622;23.316;2022-11-20T02:02:20;16.15;65.34
65637;DHT22;52327;42.622;23.316;2022-11-20T02:04:47;16.07;64.99
65637;DHT22;52327;42.622;23.316;2022-11-20T02:07:14;16.11;66.62
65637;DHT22;52327;42.622;23.316;2022-11-20T02:09:39;16.10;63.11
65637;DHT22;52327;42.622;23.316;2022-11-20T02:12:05;16.28;64.01
65637;DHT22;52327;42.622;23.316;2022-11-20T02:14:50;16.24;64.79
65637;DHT22;52327;42.622;23.316;2022-11-20T02:17:16;16.36;61.33
65637;DHT22;52327;42.622;23.316;2022-11-20T02:19:41;16.36;68.23
65637;DHT22;52327;42.622;23.316;2022-11-20T02:22:24;16.20;66.83
65637;DHT22;52327;42.622;23.316;2022-11-20T02:24:51;16.00;64.40
65637;DHT22;52327;42.622;23.316;2022-11-20T02:27:17;16.04;63.11
65637;DHT22;52327;42.622;23.316;2022-11-20T02:29:52;16.18;68.35
65637;DHT22;52327;42.622;23.316;2022-11-20T02:34:51;15.93;67.89
65637;DHT22;52327;42.622;23.316;2022-11-20T02:37:17;16.08;65.00
65637;DHT22;52327;42.622;23.316;2022-11-20T02:39:44;16.21;66.30
65637;DHT22;52327;42.622;23.316;2022-11-20T02:42:11;16.03;62.97
65637;DHT22;52327;42.622;23.316;2022-11-20T02:44:37;16.18;67.30
65637;DHT22;52327;42.622;23.316;2022-11-20T02:47:02;16.04;66.05
65637;DHT22;52327;42.622;23.316;2022-11-20T02:49:28;16.14;63.21
65637;DHT22;52327;42.622;23.316;2022-11-20T02:51:53;16.17;66.33
65637;DHT22;52327;42.622;23.316;2022-11-20T02:54:19;16.10;66.76
65637;DHT22;52327;42.622;23.316;2022-11-20T02:56:44;16.01;66.64
65637;DHT22;52327;42.622;23.316;2022-11-20T02:59:09;15.97;66.39
65637;DHT22;52327;42.622;23.316;2022-11-20T03:01:35;15.97;65.35
65637;DHT22;52327;42.622;23.316;2022-11-20T03:04:01;15.97;68.32
65637;DHT22;52327;42.622;23.316;2022-11-20T03:06:26;15.93;68.44
65637;DHT22;52327;42.622;23.316;2022-11-20T03:08:52;15.82;68.12
65637;DHT22;52327;42.622;23.316;2022-11-20T03:11:17;15.79;70.92
65637;DHT22;52327;42.622;23.316;2022-11-20T03:13:43;15.70;67.21
65637;DHT22;52327;42.622;23.316;2022-11-20T03:16:14;15.69;68.42
65637;DHT22;52327;42.622;23.316;2022-11-20T03:18:41;15.57;68.49
65637;DHT22;52327;42.622;23.316;2022-11-20T03:21:10;15.69;69.67
65637;DHT22;52327;42.622;23.316;2022-11-20T03:23:36;15.77;67.53
65637;DHT22;52327;42.622;23.316;2022-11-20T03:28:34;15.70;66.53
65637;DHT22;52327;42.622;23.316;2022-11-20T03:31:08;15.67;68.59
65637;DHT22;52327;42.622;23.316;2022-11-20T03:33:34;15.67;65.66
65637;DHT22;52327;42.622;23.316;2022-11-20T03:36:08;15.71;65.27
65637;DHT22;52327;42.622;23.316;2022-11-20T03:38:34;15.60;68.72
65637;DHT22;52327;42.622;23.316;2022-11-20T03:41:05;15.70;68.38
65637;DHT22;52327;42.622;23.316;2022-11-20T03:43:31;15.79;68.49
65637;DHT22;52327;42.622;23.316;2022-11-20T03:45:57;15.79;67.21
65637;DHT22;52327;42.622;23.316;2022-11-20T03:48:22;15.77;68.84
65637;DHT22;52327;42.622;23.316;2022-11-20T03:51:13;15.66;69.29
65637;DHT22;52327;42.622;23.316;2022-11-20T03:53:38;15.56;69.05
65637;DHT22;52327;42.622;23.316;2022-11-20T03:56:04;15.56;69.27
65637;DHT22;52327;42.622;23.316;2022-11-20T03:58:30;15.60;68.98
65637;DHT22;52327;42.622;23.316;2022-11-20T04:00:55;15.56;69.69
65637;DHT22;52327;42.622;23.316;2022-11-20T04:03:21;15.54;67.38
65637;DHT22;52327;42.622;23.316;2022-11-20T04:05:46;15.60;65.56
65637;DHT22;52327;42.622;23.316;2022-11-20T04:08:11;15.74;65.44
65637;DHT22;52327;42.622;23.316;2022-11-20T04:10:37;15.70;68.24
65637;DHT22;52327;42.622;23.316;2022-11-20T04:13:10;15.66;66.61
65637;DHT22;52327;42.622;23.316;2022-11-20T04:15:35;15.71;67.77
65637;DHT22;52327;42.622;23.316;2022-11-20T04:18:00;15.40;68.89
65637;DHT22;52327;42.622;23.316;2022-11-20T04:20:26;15.46;68.93
65637;DHT22;52327;42.622;23.316;2022-11-20T04:22:53;15.46;70.39
65637;DHT22;52327;42.622;23.316;2022-11-20T04:25:19;15.50;66.46
65637;DHT22;52327;42.622;23.316;2022-11-20T04:27:45;15.53;66.59
65637;DHT22;52327;42.622;23.316;2022-11-20T04:30:11;15.56;68.51
65637;DHT22;52327;42.622;23.316;2022-11-20T04:32:36;15.62;66.54
65637;DHT22;52327;42.622;23.316;2022-11-20T04:35:02;15.71;71.44
65637;DHT22;52327;42.622;23.316;2022-11-20T04:37:27;15.80;71.62
65637;DHT22;52327;42.622;23.316;2022-11-20T04:39:52;15.77;66.97
65637;DHT22;52327;42.622;23.316;2022-11-20T04:42:18;15.31;70.74
65637;DHT22;52327;42.622;23.316;2022-11-20T04:44:55;15.46;71.79
65637;DHT22;52327;42.622;23.316;2022-11-20T04:47:21;15.50;66.76
65637;DHT22;52327;42.622;23.316;2022-11-20T04:49:46;15.60;71.25
65637;DHT22;52327;42.622;23.316;2022-11-20T04:52:12;15.60;69.22
65637;DHT22;52327;42.622;23.316;2022-11-20T04:54:38;15.62;69.52
65637;DHT22;52327;42.622;23.316;2022-11-20T04:57:03;15.60;68.83
65637;DHT22;52327;42.622;23.316;2022-11-20T04:59:28;15.56;73.32
65637;DHT22;52327;42.622;23.316;2022-11-20T05:01:54;15.56;70.70
65637;DHT22;52327;42.622;23.316;2022-11-20T05:04:19;15.25;69.26
65637;DHT22;52327;42.622;23.316;2022-11-20T05:06:45;15.25;70.75
65637;DHT22;52327;42.622;23.316;2022-11-20T05:09:11;15.29;67.18
65637;DHT22;52327;42.622;23.316;2022-11-20T05:11:37;15.33;67.12
65637;DHT22;52327;42.622;23.316;2022-11-20T05:14:02;15.25;69.59
65637;DHT22;52327;42.622;23.316;2022-11-20T05:16:28;15.18;68.65
65637;DHT22;52327;42.622;23.316;2022-11-20T05:18:54;15.13;70.65
65637;DHT22;52327;42.622;23.316;2022-11-20T05:21:20;15.16;70.76
65637;DHT22;52327;42.622;23.316;2022-11-20T05:23:45;15.13;71.75
65637;DHT22;52327;42.622;23.316;2022-11-20T05:26:20;15.02;69.86
65637;DHT22;52327;42.622;23.316;2022-11-20T05:28:46;15.05;71.77
65637;DHT22;52327;42.622;23.316;2022-11-20T05:31:20;15.01;72.40
65637;DHT22;52327;42.622;23.316;2022-11-20T05:33:46;14.96;70.86
65637;DHT22;52327;42.622;23.316;2022-11-20T05:36:13;14.96;71.14
65637;DHT22;52327;42.622;23.316;2022-11-20T05:38:39;14.95;69.66
65637;DHT22;52327;42.622;23.316;2022-11-20T05:41:07;15.02;70.70
65637;DHT22;52327;42.622;23.316;2022-11-20T05:43:34;14.96;70.54
65637;DHT22;52327;42.622;23.316;2022-11-20T05:46:00;15.06;68.23
65637;DHT22;52327;42.622;23.316;2022-11-20T05:48:25;15.02;67.98
65637;DHT22;52327;42.622;23.316;2022-11-20T05:50:50;15.18;70.92
65637;DHT22;52327;42.622;23.316;2022-11-20T05:53:16;15.21;68.08
65637;DHT22;52327;42.622;23.316;2022-11-20T05:55:41;15.23;69.63
65637;DHT22;52327;42.622;23.316;2022-11-20T05:58:07;15.28;66.54
65637;DHT22;52327;42.622;23.316;2022-11-20T06:00:32;15.26;68.46
65637;DHT22;52327;42.622;23.316;2022-11-20T06:02:58;15.40;70.15
65637;DHT22;52327;42.622;23.316;2022-11-20T06:05:23;15.29;70.19
65637;DHT22;52327;42.622;23.316;2022-11-20T06:07:48;15.19;69.38
65637;DHT22;52327;42.622;23.316;2022-11-20T06:10:14;15.36;67.99
65637;DHT22;52327;42.622;23.316;2022-11-20T06:12:39;15.39;67.46
65637;DHT22;52327;42.622;23.316;2022-11-20T06:15:05;15.38;68.99
65637;DHT22;52327;42.622;23.316;2022-11-20T06:17:40;15.28;69.31
65637;DHT22;52327;42.622;23.316;2022-11-20T06:20:06;15.40;68.33
65637;DHT22;52327;42.622;23.316;2022-11-20T06:22:32;15.39;67.78
65637;DHT22;52327;42.622;23.316;2022-11-20T06:24:57;15.53;68.44
65637;DHT22;52327;42.622;23.316;2022-11-20T06:27:23;15.50;69.18
65637;DHT22;52327;42.622;23.316;2022-11-20T06:29:48;15.59;67.39
65637;DHT22;52327;42.622;23.316;2022-11-20T06:32:13;15.67;67.38
65637;DHT22;52327;42.622;23.316;2022-11-20T06:34:39;15.86;64.16
65637;DHT22;52327;42.622;23.316;2022-11-20T06:37:04;15.82;66.76
65637;DHT22;52327;42.622;23.316;2022-11-20T06:39:30;16.05;65.75
65637;DHT22;52327;42.622;23.316;2022-11-20T06:41:55;16.10;65.37
65637;DHT22;52327;42.622;23.316;2022-11-20T06:44:20;16.18;65.25
65637;DHT22;52327;42.622;23.316;2022-11-20T06:46:46;16.20;64.90
65637;DHT22;52327;42.622;23.316;2022-11-20T06:49:11;16.29;61.92
65637;DHT22;52327;42.622;23.316;2022-11-20T06:51:36;16.52;61.70
65637;DHT22;52327;42.622;23.316;2022-11-20T06:54:02;16.65;60.83
65637;DHT22;52327;42.622;23.316;2022-11-20T06:56:28;16.66;62.45
65637;DHT22;52327;42.622;23.316;2022-11-20T06:58:53;16.82;60.66
65637;DHT22;52327;42.622;23.316;2022-11-20T07:01:18;16.87;64.32
65637;DHT22;52327;42.622;23.316;2022-11-20T07:03:44;17.05;60.15
65637;DHT22;52327;42.622;23.316;2022-11-20T07:06:10;17.00;61.82
65637;DHT22;52327;42.622;23.316;2022-11-20T07:08:35;16.80;62.78
65637;DHT22;52327;42.622;23.316;2022-11-20T07:11:04;16.77;65.51
65637;DHT22;52327;42.622;23.316;2022-11-20T07:13:31;16.71;63.40
65637;DHT22;52327;42.622;23.316;2022-11-20T07:16:04;16.71;63.70
65637;DHT22;52327;42.622;23.316;2022-11-20T07:18:30;16.59;63.72
65637;DHT22;52327;42.622;23.316;2022-11-20T07:20:56;16.54;62.33
65637;DHT22;52327;42.622;23.316;2022-11-20T07:23:21;16.55;60.98
65637;DHT22;52327;42.622;23.316;2022-11-20T07:25:46;16.52;64.66
65637;DHT22;52327;42.622;23.316;2022-11-20T07:28:37;16.51;64.92
65637;DHT22;52327;42.622;23.316;2022-11-20T07:31:34;16.52;64.49
65637;DHT22;52327;42.622;23.316;2022-11-20T07:34:11;16.44;64.02
65637;DHT22;52327;42.622;23.316;2022-11-20T07:43:57;16.08;68.51
65637;DHT22;52327;42.622;23.316;2022-11-20T07:50:12;15.73;68.41
65637;DHT22;52327;42.622;23.316;2022-11-20T07:53:14;15.66;69.92
65637;DHT22;52327;42.622;23.316;2022-11-20T07:56:16;15.56;70.68
65637;DHT22;52327;42.622;23.316;2022-11-20T08:02:59;15.01;74.64
65637;DHT22;52327;42.622;23.316;2022-11-20T08:05:26;14.91;76.13
65637;DHT22;52327;42.622;23.316;2022-11-20T08:07:59;15.01;78.22
65637;DHT22;52327;42.622;23.316;2022-11-20T08:10:32;15.06;74.71
65637;DHT22;52327;42.622;23.316;2022-11-20T08:13:11;15.23;73.93
65637;DHT22;52327;42.622;23.316;2022-11-20T08:15:58;15.35;72.48
65637;DHT22;52327;42.622;23.316;2022-11-20T08:18:27;15.49;70.98
65637;DHT22;52327;42.622;23.316;2022-11-20T08:21:03;15.82;71.40
65637;DHT22;52327;42.622;23.316;2022-11-20T08:24:02;16.04;67.36
65637;DHT22;52327;42.622;23.316;2022-11-20T08:41:12;16.45;68.05
65637;DHT22;52327;42.622;23.316;2022-11-20T08:44:20;16.55;69.39
65637;DHT22;52327;42.622;23.316;2022-11-20T08:50:10;15.70;75.85
65637;DHT22;52327;42.622;23.316;2022-11-20T08:52:36;15.50;78.34
65637;DHT22;52327;42.622;23.316;2022-11-20T08:57:56;15.32;81.50
65637;DHT22;52327;42.622;23.316;2022-11-20T09:00:21;15.42;81.96
65637;DHT22;52327;42.622;23.316;2022-11-20T09:02:59;15.40;81.78
65637;DHT22;52327;42.622;23.316;2022-11-20T09:06:00;15.09;82.46
65637;DHT22;52327;42.622;23.316;2022-11-20T09:12:05;14.82;82.44
65637;DHT22;52327;42.622;23.316;2022-11-20T09:18:24;13.51;86.04
65637;DHT22;52327;42.622;23.316;2022-11-20T09:21:11;13.47;85.89
65637;DHT22;52327;42.622;23.316;2022-11-20T09:23:40;13.57;86.02
65637;DHT22;52327;42.622;23.316;2022-11-20T09:30:14;13.72;88.97
65637;DHT22;52327;42.622;23.316;2022-11-20T09:32:42;14.08;89.91
65637;DHT22;52327;42.622;23.316;2022-11-20T09:35:08;14.56;88.67
65637;DHT22;52327;42.622;23.316;2022-11-20T09:37:34;14.84;88.51
65637;DHT22;52327;42.622;23.316;2022-11-20T09:40:24;15.03;88.42
65637;DHT22;52327;42.622;23.316;2022-11-20T09:42:57;15.13;88.37
65637;DHT22;52327;42.622;23.316;2022-11-20T09:45:35;15.28;88.50
65637;DHT22;52327;42.622;23.316;2022-11-20T09:48:45;15.35;88.12
65637;DHT22;52327;42.622;23.316;2022-11-20T09:56:23;14.75;86.45
65637;DHT22;52327;42.622;23.316;2022-11-20T09:58:50;14.85;88.38
65637;DHT22;52327;42.622;23.316;2022-11-20T10:01:35;15.15;88.32
65637;DHT22;52327;42.622;23.316;2022-11-20T10:06:36;15.21;85.11
65637;DHT22;52327;42.622;23.316;2022-11-20T10:09:28;15.32;86.63
65637;DHT22;52327;42.622;23.316;2022-11-20T10:12:13;15.54;86.28
65637;DHT22;52327;42.622;23.316;2022-11-20T10:14:53;15.60;85.87
65637;DHT22;52327;42.622;23.316;2022-11-20T10:20:19;15.90;85.01
65637;DHT22;52327;42.622;23.316;2022-11-20T10:25:45;16.07;83.68
65637;DHT22;52327;42.622;23.316;2022-11-20T10:28:28;16.10;82.67
65637;DHT22;52327;42.622;23.316;2022-11-20T10:31:00;16.26;83.03
65637;DHT22;52327;42.622;23.316;2022-11-20T10:33:29;16.29;81.99
65637;DHT22;52327;42.622;23.316;2022-11-20T10:38:43;16.41;81.74
65637;DHT22;52327;42.622;23.316;2022-11-20T10:41:16;16.61;82.08
65637;DHT22;52327;42.622;23.316;2022-11-20T10:44:04;16.65;81.69
65637;DHT22;52327;42.622;23.316;2022-11-20T10:46:45;16.28;81.64
65637;DHT22;52327;42.622;23.316;2022-11-20T10:49:13;15.82;83.02
65637;DHT22;52327;42.622;23.316;2022-11-20T10:54:39;15.01;86.49
65637;DHT22;52327;42.622;23.316;2022-11-20T11:02:29;15.13;86.45
65637;DHT22;52327;42.622;23.316;2022-11-20T11:04:58;14.99;88.19
65637;DHT22;52327;42.622;23.316;2022-11-20T11:07:38;14.78;88.00
65637;DHT22;52327;42.622;23.316;2022-11-20T11:13:07;13.66;90.75
65637;DHT22;52327;42.622;23.316;2022-11-20T11:15:40;13.39;90.29
65637;DHT22;52327;42.622;23.316;2022-11-20T11:18:10;13.15;86.60
65637;DHT22;52327;42.622;23.316;2022-11-20T11:20:37;12.49;88.95
65637;DHT22;52327;42.622;23.316;2022-11-20T11:23:02;12.22;89.79
65637;DHT22;52327;42.622;23.316;2022-11-20T11:25:34;12.26;91.26
65637;DHT22;52327;42.622;23.316;2022-11-20T11:28:18;12.16;88.61
65637;DHT22;52327;42.622;23.316;2022-11-20T11:30:45;11.89;89.85
65637;DHT22;52327;42.622;23.316;2022-11-20T11:33:30;11.74;91.09
65637;DHT22;52327;42.622;23.316;2022-11-20T11:35:59;11.65;89.55
65637;DHT22;52327;42.622;23.316;2022-11-20T11:38:42;11.40;90.88
65637;DHT22;52327;42.622;23.316;2022-11-20T11:41:20;11.13;90.19
65637;DHT22;52327;42.622;23.316;2022-11-20T11:43:54;11.03;90.13
65637;DHT22;52327;42.622;23.316;2022-11-20T11:46:44;10.95;91.09
65637;DHT22;52327;42.622;23.316;2022-11-20T11:49:18;11.06;89.04
65637;DHT22;52327;42.622;23.316;2022-11-20T11:51:58;11.03;88.65
65637;DHT22;52327;42.622;23.316;2022-11-20T11:54:38;11.00;88.89
65637;DHT22;52327;42.622;23.316;2022-11-20T11:57:20;11.03;90.58
65637;DHT22;52327;42.622;23.316;2022-11-20T12:00:16;11.00;90.45
65637;DHT22;52327;42.622;23.316;2022-11-20T12:13:20;10.89;89.14
65637;DHT22;52327;42.622;23.316;2022-11-20T12:15:47;10.85;89.47
65637;DHT22;52327;42.622;23.316;2022-11-20T12:18:21;10.79;89.04
65637;DHT22;52327;42.622;23.316;2022-11-20T12:23:35;10.73;89.86
65637;DHT22;52327;42.622;23.316;2022-11-20T12:26:16;10.62;90.37
65637;DHT22;52327;42.622;23.316;2022-11-20T12:29:17;10.56;91.00
65637;DHT22;52327;42.622;23.316;2022-11-20T12:40:50;10.75;90.83
65637;DHT22;52327;42.622;23.316;2022-11-20T12:43:27;10.96;90.98
65637;DHT22;52327;42.622;23.316;2022-11-20T12:54:58;11.57;85.89
65637;DHT22;52327;42.622;23.316;2022-11-20T12:57:49;12.02;87.31
65637;DHT22;52327;42.622;23.316;2022-11-20T13:00:20;12.45;87.66
65637;DHT22;52327;42.622;23.316;2022-11-20T13:03:06;12.68;84.08
65637;DHT22;52327;42.622;23.316;2022-11-20T13:08:10;13.10;82.24
65637;DHT22;52327;42.622;23.316;2022-11-20T13:10:50;13.32;83.22
65637;DHT22;52327;42.622;23.316;2022-11-20T13:13:23;13.49;84.66
65637;DHT22;52327;42.622;23.316;2022-11-20T13:15:53;13.35;83.68
65637;DHT22;52327;42.622;23.316;2022-11-20T13:18:21;12.72;84.82
65637;DHT22;52327;42.622;23.316;2022-11-20T13:20:46;12.37;85.02
65637;DHT22;52327;42.622;23.316;2022-11-20T13:23:26;12.18;86.55
65637;DHT22;52327;42.622;23.316;2022-11-20T13:26:13;12.11;88.71
65637;DHT22;52327;42.622;23.316;2022-11-20T13:28:39;12.15;87.12
65637;DHT22;52327;42.622;23.316;2022-11-20T13:31:21;12.21;86.41
65637;DHT22;52327;42.622;23.316;2022-11-20T13:33:54;12.37;87.31
65637;DHT22;52327;42.622;23.316;2022-11-20T13:36:23;12.57;87.53
65637;DHT22;52327;42.622;23.316;2022-11-20T13:38:51;12.72;88.12
65637;DHT22;52327;42.622;23.316;2022-11-20T13:41:31;12.77;88.10
65637;DHT22;52327;42.622;23.316;2022-11-20T13:46:46;12.77;88.61
65637;DHT22;52327;42.622;23.316;2022-11-20T13:49:38;12.87;88.29
65637;DHT22;52327;42.622;23.316;2022-11-20T13:55:37;12.86;87.90
65637;DHT22;52327;42.622;23.316;2022-11-20T14:00:56;12.94;87.80
65637;DHT22;52327;42.622;23.316;2022-11-20T14:03:23;12.86;88.79
65637;DHT22;52327;42.622;23.316;2022-11-20T14:05:52;12.87;89.19
65637;DHT22;52327;42.622;23.316;2022-11-20T14:08:27;12.81;89.23
65637;DHT22;52327;42.622;23.316;2022-11-20T14:11:13;12.87;89.41
65637;DHT22;52327;42.622;23.316;2022-11-20T14:13:39;12.94;89.45
65637;DHT22;52327;42.622;23.316;2022-11-20T14:16:05;12.97;89.26
65637;DHT22;52327;42.622;23.316;2022-11-20T14:18:30;12.96;88.39
65637;DHT22;52327;42.622;23.316;2022-11-20T14:20:55;12.88;89.17
65637;DHT22;52327;42.622;23.316;2022-11-20T14:23:28;12.81;89.41
65637;DHT22;52327;42.622;23.316;2022-11-20T14:25:54;12.59;89.73
65637;DHT22;52327;42.622;23.316;2022-11-20T14:28:25;12.45;90.24
65637;DHT22;52327;42.622;23.316;2022-11-20T14:30:51;12.57;89.87
65637;DHT22;52327;42.622;23.316;2022-11-20T14:33:17;12.57;90.03
65637;DHT22;52327;42.622;23.316;2022-11-20T14:35:50;12.39;90.15
65637;DHT22;52327;42.622;23.316;2022-11-20T14:38:19;12.43;90.58
65637;DHT22;52327;42.622;23.316;2022-11-20T14:40:45;12.29;90.80
65637;DHT22;52327;42.622;23.316;2022-11-20T14:43:27;12.42;90.37
65637;DHT22;52327;42.622;23.316;2022-11-20T14:46:02;12.33;90.41
65637;DHT22;52327;42.622;23.316;2022-11-20T14:48:39;12.40;90.11
65637;DHT22;52327;42.622;23.316;2022-11-20T14:51:11;12.28;88.94
65637;DHT22;52327;42.622;23.316;2022-11-20T14:53:37;12.12;89.66
65637;DHT22;52327;42.622;23.316;2022-11-20T14:56:02;11.96;89.88
65637;DHT22;52327;42.622;23.316;2022-11-20T14:58:30;11.82;90.38
65637;DHT22;52327;42.622;23.316;2022-11-20T15:01:11;11.94;90.07
65637;DHT22;52327;42.622;23.316;2022-11-20T15:03:40;11.82;88.98
65637;DHT22;52327;42.622;23.316;2022-11-20T15:06:09;11.73;89.59
65637;DHT22;52327;42.622;23.316;2022-11-20T15:08:35;11.41;88.93
65637;DHT22;52327;42.622;23.316;2022-11-20T15:11:01;11.38;89.66
65637;DHT22;52327;42.622;23.316;2022-11-20T15:13:32;11.41;88.74
65637;DHT22;52327;42.622;23.316;2022-11-20T15:16:00;11.50;89.04
65637;DHT22;52327;42.622;23.316;2022-11-20T15:18:32;11.41;89.81
65637;DHT22;52327;42.622;23.316;2022-11-20T15:21:03;11.38;88.01
65637;DHT22;52327;42.622;23.316;2022-11-20T15:23:29;11.27;88.79
65637;DHT22;52327;42.622;23.316;2022-11-20T15:25:55;11.20;90.08
65637;DHT22;52327;42.622;23.316;2022-11-20T15:28:23;11.27;89.70
65637;DHT22;52327;42.622;23.316;2022-11-20T15:30:52;11.16;87.21
65637;DHT22;52327;42.622;23.316;2022-11-20T15:33:18;11.19;89.63
65637;DHT22;52327;42.622;23.316;2022-11-20T15:35:44;11.31;90.15
65637;DHT22;52327;42.622;23.316;2022-11-20T15:38:09;11.26;89.45
65637;DHT22;52327;42.622;23.316;2022-11-20T15:40:35;11.33;89.36
65637;DHT22;52327;42.622;23.316;2022-11-20T15:43:01;11.33;88.88
65637;DHT22;52327;42.622;23.316;2022-11-20T15:45:44;11.06;88.75
65637;DHT22;52327;42.622;23.316;2022-11-20T15:48:30;10.86;89.29
65637;DHT22;52327;42.622;23.316;2022-11-20T15:53:35;10.65;91.10
65637;DHT22;52327;42.622;23.316;2022-11-20T15:56:01;10.51;92.15
65637;DHT22;52327;42.622;23.316;2022-11-20T15:58:26;10.42;92.58
65637;DHT22;52327;42.622;23.316;2022-11-20T16:00:52;10.40;92.73
65637;DHT22;52327;42.622;23.316;2022-11-20T16:03:18;10.40;93.21
65637;DHT22;52327;42.622;23.316;2022-11-20T16:05:43;10.49;93.28
65637;DHT22;52327;42.622;23.316;2022-11-20T16:08:09;10.46;93.41
65637;DHT22;52327;42.622;23.316;2022-11-20T16:10:35;10.49;93.28
65637;DHT22;52327;42.622;23.316;2022-11-20T16:13:00;10.31;93.70
65637;DHT22;52327;42.622;23.316;2022-11-20T16:15:53;10.28;93.90
65637;DHT22;52327;42.622;23.316;2022-11-20T16:18:21;10.10;93.64
65637;DHT22;52327;42.622;23.316;2022-11-20T16:20:54;10.05;92.91
65637;DHT22;52327;42.622;23.316;2022-11-20T16:23:20;9.98;93.41
65637;DHT22;52327;42.622;23.316;2022-11-20T16:25:47;10.14;93.84
65637;DHT22;52327;42.622;23.316;2022-11-20T16:28:13;10.30;94.02
65637;DHT22;52327;42.622;23.316;2022-11-20T16:30:38;10.46;94.04
65637;DHT22;52327;42.622;23.316;2022-11-20T16:33:09;10.55;93.34
65637;DHT22;52327;42.622;23.316;2022-11-20T16:35:36;10.55;93.14
65637;DHT22;52327;42.622;23.316;2022-11-20T16:38:01;10.65;93.10
65637;DHT22;52327;42.622;23.316;2022-11-20T16:40:27;10.55;92.81
65637;DHT22;52327;42.622;23.316;2022-11-20T16:42:52;10.53;92.26
65637;DHT22;52327;42.622;23.316;2022-11-20T16:45:18;10.30;92.57
65637;DHT22;52327;42.622;23.316;2022-11-20T16:47:43;10.35;93.18
65637;DHT22;52327;42.622;23.316;2022-11-20T16:50:09;10.35;92.95
65637;DHT22;52327;42.622;23.316;2022-11-20T16:52:34;10.38;93.04
65637;DHT22;52327;42.622;23.316;2022-11-20T16:55:00;10.46;93.15
65637;DHT22;52327;42.622;23.316;2022-11-20T16:57:29;10.72;92.66
65637;DHT22;52327;42.622;23.316;2022-11-20T16:59:57;10.71;92.59
65637;DHT22;52327;42.622;23.316;2022-11-20T17:02:22;10.69;92.66
65637;DHT22;52327;42.622;23.316;2022-11-20T17:04:47;10.72;92.41
65637;DHT22;52327;42.622;23.316;2022-11-20T17:07:13;10.80;92.58
65637;DHT22;52327;42.622;23.316;2022-11-20T17:09:38;10.83;92.48
65637;DHT22;52327;42.622;23.316;2022-11-20T17:12:04;10.85;92.71
65637;DHT22;52327;42.622;23.316;2022-11-20T17:14:30;11.02;92.92
65637;DHT22;52327;42.622;23.316;2022-11-20T17:16:55;11.20;92.34
65637;DHT22;52327;42.622;23.316;2022-11-20T17:19:20;11.22;92.28
65637;DHT22;52327;42.622;23.316;2022-11-20T17:21:46;11.27;92.28
65637;DHT22;52327;42.622;23.316;2022-11-20T17:24:12;11.33;92.27
65637;DHT22;52327;42.622;23.316;2022-11-20T17:26:39;11.38;92.23
65637;DHT22;52327;42.622;23.316;2022-11-20T17:29:09;11.40;92.13
65637;DHT22;52327;42.622;23.316;2022-11-20T17:31:35;11.47;92.09
65637;DHT22;52327;42.622;23.316;2022-11-20T17:34:03;11.44;92.03
65637;DHT22;52327;42.622;23.316;2022-11-20T17:36:29;11.53;91.85
65637;DHT22;52327;42.622;23.316;2022-11-20T17:38:54;11.54;91.54
65637;DHT22;52327;42.622;23.316;2022-11-20T17:41:23;11.60;91.26